createdAt,value
2022-07-26T00:00:02.958Z,70.92
2022-07-26T00:02:30.597Z,70.96
2022-07-26T00:04:57.103Z,70.17
2022-07-26T00:07:23.565Z,70.56
2022-07-26T00:09:50.062Z,70.99
2022-07-26T00:12:16.876Z,72.98
2022-07-26T00:14:43.519Z,73.13
2022-07-26T00:17:10.097Z,72.95
2022-07-26T00:19:36.629Z,73.14
2022-07-26T00:22:22.043Z,72.75
2022-07-26T00:24:48.526Z,73.76
2022-07-26T00:27:14.996Z,71.57
2022-07-26T00:29:41.550Z,71.78
2022-07-26T00:32:08.051Z,72.01
2022-07-26T00:34:34.612Z,73.73
2022-07-26T00:37:01.390Z,73.07
2022-07-26T00:39:28.914Z,73.42
2022-07-26T00:41:55.673Z,76.00
2022-07-26T00:44:22.195Z,73.49
2022-07-26T00:46:48.851Z,72.99
2022-07-26T00:49:15.448Z,73.54
2022-07-26T00:51:42.400Z,72.33
2022-07-26T00:54:13.009Z,72.28
2022-07-26T00:56:40.010Z,72.97
2022-07-26T00:59:06.852Z,72.94
2022-07-26T01:01:33.660Z,73.60
2022-07-26T01:04:00.302Z,73.55
2022-07-26T01:06:27.450Z,73.43
2022-07-26T01:08:54.526Z,73.50
2022-07-26T01:11:21.026Z,73.33
2022-07-26T01:13:49.061Z,74.20
2022-07-26T01:16:15.932Z,73.95
2022-07-26T01:18:42.804Z,72.76
2022-07-26T01:21:13.955Z,73.60
2022-07-26T01:23:41.960Z,73.67
2022-07-26T01:26:08.627Z,74.77
2022-07-26T01:28:39.876Z,73.55
2022-07-26T01:31:07.652Z,73.47
2022-07-26T01:33:34.855Z,73.07
2022-07-26T01:36:01.602Z,72.81
2022-07-26T01:38:28.412Z,73.30
2022-07-26T01:40:54.953Z,72.47
2022-07-26T01:43:21.463Z,74.22
2022-07-26T01:45:48.136Z,74.32
2022-07-26T01:48:14.816Z,73.39
2022-07-26T01:50:41.382Z,73.28
2022-07-26T01:53:07.893Z,73.28
2022-07-26T01:55:34.995Z,72.94
2022-07-26T01:58:01.528Z,73.42
2022-07-26T02:00:29.116Z,72.74
2022-07-26T02:02:55.801Z,75.47
2022-07-26T02:05:22.405Z,74.21
2022-07-26T02:07:48.971Z,73.76
2022-07-26T02:10:17.161Z,73.35
2022-07-26T02:12:44.279Z,73.55
2022-07-26T02:15:11.920Z,73.72
2022-07-26T02:17:38.595Z,74.21
2022-07-26T02:20:05.834Z,74.69
2022-07-26T02:22:32.297Z,75.66
2022-07-26T02:25:04.487Z,74.36
2022-07-26T02:27:31.678Z,75.00
2022-07-26T02:29:58.164Z,75.03
2022-07-26T02:32:24.648Z,76.17
2022-07-26T02:34:51.128Z,76.70
2022-07-26T02:37:17.582Z,75.16
2022-07-26T02:39:44.103Z,74.86
2022-07-26T02:42:10.797Z,75.43
2022-07-26T02:44:37.383Z,75.87
2022-07-26T02:47:03.902Z,75.35
2022-07-26T02:49:30.391Z,77.18
2022-07-26T02:51:57.400Z,76.02
2022-07-26T02:54:24.031Z,75.34
2022-07-26T02:56:50.554Z,76.95
2022-07-26T02:59:17.154Z,75.45
2022-07-26T03:01:43.697Z,76.44
2022-07-26T03:04:10.623Z,77.30
2022-07-26T03:06:37.574Z,76.90
2022-07-26T03:09:04.654Z,77.35
2022-07-26T03:11:31.132Z,76.69
2022-07-26T03:13:57.696Z,76.04
2022-07-26T03:16:29.250Z,75.31
2022-07-26T03:18:56.363Z,77.61
2022-07-26T03:21:22.935Z,77.75
2022-07-26T03:23:49.509Z,78.93
2022-07-26T03:26:16.126Z,77.56
2022-07-26T03:28:44.473Z,76.21
2022-07-26T03:31:12.931Z,77.09
2022-07-26T03:33:40.653Z,77.85
2022-07-26T03:36:11.558Z,77.82
2022-07-26T03:38:39.960Z,77.60
2022-07-26T03:41:06.655Z,75.54
2022-07-26T03:43:36.283Z,76.31
2022-07-26T03:46:03.199Z,78.16
2022-07-26T03:48:31.123Z,75.86
2022-07-26T03:50:57.905Z,76.92
2022-07-26T03:53:24.437Z,75.90
2022-07-26T03:56:10.312Z,76.17
2022-07-26T03:58:36.836Z,75.04
2022-07-26T04:01:04.060Z,75.25
2022-07-26T04:03:30.657Z,78.47
2022-07-26T04:05:57.605Z,77.77
2022-07-26T04:08:24.794Z,76.40
2022-07-26T04:10:51.478Z,77.18
2022-07-26T04:13:19.208Z,77.86
2022-07-26T04:15:46.146Z,78.00
2022-07-26T04:18:14.214Z,77.86
2022-07-26T04:20:41.065Z,76.69
2022-07-26T04:23:11.623Z,75.69
2022-07-26T04:25:41.072Z,76.02
2022-07-26T04:28:08.682Z,77.35
2022-07-26T04:30:35.423Z,76.41
2022-07-26T04:33:02.127Z,75.65
2022-07-26T04:35:28.609Z,75.49
2022-07-26T04:37:55.210Z,75.69
2022-07-26T04:40:23.556Z,75.56
2022-07-26T04:42:51.536Z,76.64
2022-07-26T04:45:18.492Z,75.78
2022-07-26T04:47:45.881Z,76.51
2022-07-26T04:50:16.230Z,75.57
2022-07-26T04:52:42.913Z,76.44
2022-07-26T04:55:10.676Z,76.18
2022-07-26T04:57:37.461Z,74.88
2022-07-26T05:00:21.540Z,76.47
2022-07-26T05:02:50.198Z,76.85
2022-07-26T05:05:16.837Z,76.77
2022-07-26T05:07:47.417Z,75.68
2022-07-26T05:10:15.479Z,76.91
2022-07-26T05:12:42.090Z,76.12
2022-07-26T05:15:13.829Z,77.26
2022-07-26T05:17:42.743Z,76.64
2022-07-26T05:20:11.062Z,76.36
2022-07-26T05:22:37.925Z,76.06
2022-07-26T05:25:05.173Z,75.18
2022-07-26T05:27:31.789Z,73.61
2022-07-26T05:29:58.490Z,75.09
2022-07-26T05:32:25.185Z,74.45
2022-07-26T05:34:51.673Z,74.28
2022-07-26T05:37:18.188Z,76.15
2022-07-26T05:39:44.675Z,76.82
2022-07-26T05:42:11.297Z,77.81
2022-07-26T05:44:42.666Z,81.09
2022-07-26T05:47:09.776Z,81.58
2022-07-26T05:49:40.071Z,81.48
2022-07-26T05:52:07.913Z,80.89
2022-07-26T05:54:34.606Z,79.92
2022-07-26T05:57:01.169Z,81.98
2022-07-26T05:59:27.950Z,81.01
2022-07-26T06:01:56.595Z,81.12
2022-07-26T06:04:25.974Z,79.31
2022-07-26T06:06:54.826Z,80.03
2022-07-26T06:09:22.460Z,78.58
2022-07-26T06:11:48.951Z,79.05
2022-07-26T06:14:15.550Z,78.22
2022-07-26T06:16:42.179Z,77.38
2022-07-26T06:19:08.725Z,75.43
2022-07-26T06:21:35.301Z,75.66
2022-07-26T06:24:01.883Z,74.56
2022-07-26T06:26:28.392Z,73.32
2022-07-26T06:28:54.902Z,69.73
2022-07-26T06:31:21.663Z,70.74
2022-07-26T06:33:48.212Z,70.20
2022-07-26T06:36:14.759Z,70.25
2022-07-26T06:38:41.310Z,71.43
2022-07-26T06:41:07.921Z,70.61
2022-07-26T06:43:34.417Z,72.05
2022-07-26T06:46:01.130Z,71.58
2022-07-26T06:48:27.805Z,69.19
2022-07-26T06:50:55.637Z,71.34
2022-07-26T06:53:22.177Z,71.79
2022-07-26T06:55:48.700Z,71.40
2022-07-26T06:58:15.163Z,69.77
2022-07-26T07:00:41.774Z,69.07
2022-07-26T07:03:08.278Z,68.71
2022-07-26T07:05:34.775Z,72.39
2022-07-26T07:08:01.247Z,75.55
2022-07-26T07:10:29.132Z,78.16
2022-07-26T07:12:56.108Z,80.50
2022-07-26T07:15:22.590Z,78.67
2022-07-26T07:17:51.592Z,76.08
2022-07-26T07:20:18.237Z,74.30
2022-07-26T07:22:44.920Z,73.76
2022-07-26T07:25:11.409Z,72.10
2022-07-26T07:27:41.502Z,69.36
2022-07-26T07:30:10.861Z,69.88
2022-07-26T07:32:37.535Z,69.80
2022-07-26T07:35:08.030Z,69.46
2022-07-26T07:37:53.907Z,67.61
2022-07-26T07:40:21.280Z,68.89
2022-07-26T07:42:47.889Z,68.90
2022-07-26T07:45:14.919Z,70.16
2022-07-26T07:47:41.593Z,70.80
2022-07-26T07:50:08.715Z,69.46
2022-07-26T07:52:35.221Z,66.66
2022-07-26T07:55:36.105Z,67.92
2022-07-26T07:57:48.193Z,65.42
2022-07-26T08:00:16.795Z,63.97
2022-07-26T08:02:46.018Z,65.04
2022-07-26T08:05:14.073Z,71.83
2022-07-26T08:07:41.775Z,71.66
2022-07-26T08:10:11.460Z,70.31
2022-07-26T08:12:37.971Z,68.21
2022-07-26T08:15:07.698Z,66.41
2022-07-26T08:17:35.547Z,65.90
2022-07-26T08:20:08.606Z,63.68
2022-07-26T08:22:37.970Z,63.70
2022-07-26T08:25:05.313Z,62.85
2022-07-26T08:27:40.311Z,61.89
2022-07-26T08:30:07.917Z,59.06
2022-07-26T08:32:35.458Z,59.33
2022-07-26T08:35:17.973Z,57.47
2022-07-26T08:37:46.443Z,60.03
2022-07-26T08:40:13.059Z,57.24
2022-07-26T08:42:39.643Z,58.01
2022-07-26T08:45:06.995Z,59.73
2022-07-26T08:47:40.070Z,58.14
2022-07-26T08:50:12.801Z,62.46
2022-07-26T08:52:42.590Z,66.08
2022-07-26T08:55:09.839Z,66.09
2022-07-26T08:57:36.575Z,65.09
2022-07-26T09:00:21.970Z,60.30
2022-07-26T09:02:48.990Z,56.44
2022-07-26T09:05:18.708Z,56.17
2022-07-26T09:07:45.343Z,54.86
2022-07-26T09:10:14.343Z,54.74
2022-07-26T09:12:41.545Z,53.20
2022-07-26T09:15:18.306Z,54.28
2022-07-26T09:17:46.929Z,55.11
2022-07-26T09:20:17.172Z,55.26
2022-07-26T09:23:06.251Z,53.94
2022-07-26T09:25:38.490Z,51.76
2022-07-26T09:28:22.031Z,54.38
2022-07-26T09:30:53.378Z,54.99
2022-07-26T09:33:19.923Z,56.14
2022-07-26T09:36:01.712Z,55.27
2022-07-26T09:38:44.317Z,53.97
2022-07-26T09:41:37.194Z,50.24
2022-07-26T09:44:20.415Z,48.87
2022-07-26T09:46:58.523Z,50.37
2022-07-26T09:49:29.624Z,48.66
2022-07-26T09:52:15.343Z,47.57
2022-07-26T09:54:41.829Z,50.10
2022-07-26T09:57:08.368Z,49.09
2022-07-26T09:59:34.860Z,50.38
2022-07-26T10:02:01.547Z,53.72
2022-07-26T10:04:28.284Z,54.95
2022-07-26T10:06:55.805Z,56.63
2022-07-26T10:09:25.604Z,55.31
2022-07-26T10:12:03.864Z,51.19
2022-07-26T10:14:33.479Z,52.86
2022-07-26T10:17:00.914Z,52.07
2022-07-26T10:19:45.740Z,51.35
2022-07-26T10:22:30.696Z,49.60
2022-07-26T10:25:18.471Z,50.74
2022-07-26T10:27:51.978Z,50.30
2022-07-26T10:30:18.578Z,53.48
2022-07-26T10:32:54.120Z,55.79
2022-07-26T10:35:43.263Z,54.26
2022-07-26T10:38:15.151Z,53.25
2022-07-26T10:41:06.285Z,50.38
2022-07-26T10:43:42.498Z,47.36
2022-07-26T10:46:18.636Z,45.87
2022-07-26T10:49:06.578Z,49.21
2022-07-26T10:51:41.209Z,51.77
2022-07-26T10:54:10.182Z,48.07
2022-07-26T10:56:38.556Z,45.88
2022-07-26T10:59:05.796Z,46.34
2022-07-26T11:01:39.550Z,44.33
2022-07-26T11:04:08.451Z,46.64
2022-07-26T11:06:35.334Z,46.78
2022-07-26T11:09:10.375Z,43.65
2022-07-26T11:11:36.840Z,43.47
2022-07-26T11:14:08.695Z,45.09
2022-07-26T11:16:43.817Z,45.88
2022-07-26T11:19:20.453Z,42.92
2022-07-26T11:21:58.907Z,42.69
2022-07-26T11:24:26.801Z,41.43
2022-07-26T11:26:53.776Z,43.33
2022-07-26T11:29:38.167Z,43.58
2022-07-26T11:32:18.545Z,46.54
2022-07-26T11:34:45.970Z,46.34
2022-07-26T11:37:12.897Z,44.77
2022-07-26T11:39:39.912Z,42.79
2022-07-26T11:42:13.081Z,42.30
2022-07-26T11:44:43.758Z,42.13
2022-07-26T11:47:12.570Z,41.11
2022-07-26T11:52:31.109Z,40.63
2022-07-26T11:54:57.696Z,40.20
2022-07-26T11:57:29.472Z,41.05
2022-07-26T11:59:56.003Z,40.36
2022-07-26T12:02:22.654Z,41.57
2022-07-26T12:04:49.394Z,42.28
2022-07-26T12:07:18.654Z,43.40
2022-07-26T12:09:54.322Z,45.09
2022-07-26T12:12:29.436Z,45.77
2022-07-26T12:15:01.865Z,46.05
2022-07-26T12:17:34.636Z,46.26
2022-07-26T12:20:15.250Z,43.00
2022-07-26T12:22:58.370Z,45.79
2022-07-26T12:25:29.025Z,43.42
2022-07-26T12:27:56.082Z,44.09
2022-07-26T12:30:23.763Z,44.19
2022-07-26T12:32:54.813Z,42.49
2022-07-26T12:35:33.651Z,40.76
2022-07-26T12:38:00.543Z,41.36
2022-07-26T12:40:28.748Z,44.33
2022-07-26T12:43:01.154Z,45.09
2022-07-26T12:45:30.843Z,44.01
2022-07-26T12:47:58.709Z,45.29
2022-07-26T12:50:27.110Z,45.84
2022-07-26T12:53:01.395Z,44.96
2022-07-26T12:55:27.944Z,42.55
2022-07-26T12:57:55.894Z,42.59
2022-07-26T13:00:24.346Z,39.84
2022-07-26T13:02:52.895Z,39.54
2022-07-26T13:05:19.553Z,41.04
2022-07-26T13:07:46.273Z,43.93
2022-07-26T13:12:59.477Z,42.01
2022-07-26T13:15:35.934Z,44.42
2022-07-26T13:18:05.990Z,45.34
2022-07-26T13:20:32.751Z,45.84
2022-07-26T13:22:59.297Z,46.28
2022-07-26T13:25:26.108Z,46.42
2022-07-26T13:27:57.319Z,46.16
2022-07-26T13:30:23.921Z,43.74
2022-07-26T13:32:50.484Z,44.13
2022-07-26T13:35:17.011Z,46.41
2022-07-26T13:37:43.520Z,45.57
2022-07-26T13:40:10.514Z,45.74
2022-07-26T13:42:38.176Z,44.50
2022-07-26T13:45:06.466Z,45.19
2022-07-26T13:47:33.051Z,45.99
2022-07-26T13:49:59.604Z,45.69
2022-07-26T13:52:26.122Z,43.10
2022-07-26T13:54:53.149Z,43.62
2022-07-26T13:57:19.662Z,44.30
2022-07-26T13:59:46.151Z,43.25
2022-07-26T14:02:12.814Z,41.87
2022-07-26T14:04:39.358Z,42.94
2022-07-26T14:07:05.866Z,41.84
2022-07-26T14:09:32.353Z,42.21
2022-07-26T14:11:58.986Z,40.18
2022-07-26T14:14:25.597Z,40.19
2022-07-26T14:16:52.134Z,41.72
2022-07-26T14:19:18.795Z,42.75
2022-07-26T14:21:58.883Z,44.89
2022-07-26T14:24:27.212Z,45.89
2022-07-26T14:26:58.475Z,47.51
2022-07-26T14:29:25.906Z,46.06
2022-07-26T14:31:53.050Z,46.25
2022-07-26T14:34:19.693Z,46.33
2022-07-26T14:36:46.308Z,44.89
2022-07-26T14:39:12.794Z,46.18
2022-07-26T14:41:39.654Z,45.33
2022-07-26T14:44:06.550Z,46.82
2022-07-26T14:46:33.238Z,47.73
2022-07-26T14:48:59.798Z,46.78
2022-07-26T14:51:26.378Z,44.77
2022-07-26T14:53:52.896Z,45.48
2022-07-26T14:56:19.366Z,46.11
2022-07-26T14:58:45.895Z,47.72
2022-07-26T15:01:12.472Z,49.53
2022-07-26T15:03:39.060Z,50.37
2022-07-26T15:06:05.545Z,49.29
2022-07-26T15:08:32.121Z,48.29
2022-07-26T15:10:58.685Z,49.33
2022-07-26T15:13:25.323Z,47.60
2022-07-26T15:15:52.078Z,49.21
2022-07-26T15:18:18.664Z,48.30
2022-07-26T15:20:45.176Z,49.72
2022-07-26T15:23:14.992Z,48.82
2022-07-26T15:25:41.502Z,49.10
2022-07-26T15:28:08.349Z,48.63
2022-07-26T15:30:35.438Z,48.58
2022-07-26T15:33:02.190Z,47.85
2022-07-26T15:35:29.966Z,48.36
2022-07-26T15:37:57.578Z,49.54
2022-07-26T15:40:24.583Z,48.37
2022-07-26T15:42:53.036Z,48.19
2022-07-26T15:45:20.927Z,48.36
2022-07-26T15:48:05.523Z,46.52
2022-07-26T15:50:36.185Z,47.50
2022-07-26T15:53:02.797Z,47.93
2022-07-26T15:55:29.287Z,48.12
2022-07-26T15:57:55.838Z,48.37
2022-07-26T16:00:22.311Z,47.61
2022-07-26T16:02:48.834Z,46.69
2022-07-26T16:05:15.947Z,49.19
2022-07-26T16:07:44.754Z,48.03
2022-07-26T16:10:12.932Z,47.01
2022-07-26T16:12:40.631Z,45.37
2022-07-26T16:15:09.053Z,46.29
2022-07-26T16:17:36.110Z,47.58
2022-07-26T16:20:02.864Z,47.08
2022-07-26T16:22:30.159Z,47.58
2022-07-26T16:24:56.625Z,47.50
2022-07-26T16:27:23.226Z,47.50
2022-07-26T16:29:52.524Z,47.25
2022-07-26T16:32:21.337Z,47.53
2022-07-26T16:34:48.252Z,46.02
2022-07-26T16:37:14.973Z,45.96
2022-07-26T16:39:41.484Z,45.87
2022-07-26T16:42:08.023Z,44.93
2022-07-26T16:44:36.171Z,45.67
2022-07-26T16:47:04.569Z,45.90
2022-07-26T16:49:31.319Z,46.05
2022-07-26T16:51:57.975Z,46.83
2022-07-26T16:54:25.286Z,46.16
2022-07-26T16:56:51.791Z,46.01
2022-07-26T16:59:18.507Z,45.22
2022-07-26T17:01:45.428Z,45.73
2022-07-26T17:04:11.980Z,46.85
2022-07-26T17:06:38.601Z,46.45
2022-07-26T17:09:05.462Z,47.34
2022-07-26T17:11:31.942Z,47.27
2022-07-26T17:13:59.461Z,45.35
2022-07-26T17:16:26.026Z,45.90
2022-07-26T17:18:53.853Z,46.28
2022-07-26T17:21:21.390Z,46.01
2022-07-26T17:23:48.801Z,46.96
2022-07-26T17:26:16.424Z,47.49
2022-07-26T17:28:43.110Z,46.84
2022-07-26T17:31:09.813Z,47.74
2022-07-26T17:33:36.326Z,47.18
2022-07-26T17:36:22.379Z,47.58
2022-07-26T17:38:49.119Z,49.39
2022-07-26T17:41:17.578Z,50.53
2022-07-26T17:43:45.183Z,51.57
2022-07-26T17:46:11.877Z,52.78
2022-07-26T17:48:39.057Z,53.91
2022-07-26T17:51:05.732Z,53.80
2022-07-26T17:53:34.595Z,55.59
2022-07-26T17:56:02.063Z,56.96
2022-07-26T17:58:28.617Z,56.52
2022-07-26T18:00:55.167Z,58.03
2022-07-26T18:03:23.154Z,56.96
2022-07-26T18:05:51.064Z,55.87
2022-07-26T18:08:18.071Z,56.69
2022-07-26T18:10:50.590Z,56.19
2022-07-26T18:13:17.818Z,55.16
2022-07-26T18:15:44.637Z,55.71
2022-07-26T18:18:11.221Z,55.60
2022-07-26T18:20:37.886Z,56.53
2022-07-26T18:23:04.546Z,55.23
2022-07-26T18:25:31.074Z,56.07
2022-07-26T18:27:57.562Z,57.02
2022-07-26T18:30:24.820Z,56.67
2022-07-26T18:32:51.416Z,56.08
2022-07-26T18:35:18.491Z,56.43
2022-07-26T18:37:46.935Z,56.05
2022-07-26T18:40:13.471Z,56.88
2022-07-26T18:42:40.545Z,55.83
2022-07-26T18:45:07.702Z,55.15
2022-07-26T18:47:34.691Z,54.33
2022-07-26T18:50:01.178Z,54.21
2022-07-26T18:52:32.568Z,54.00
2022-07-26T18:55:01.612Z,54.25
2022-07-26T18:57:28.121Z,53.18
2022-07-26T18:59:55.301Z,52.62
2022-07-26T19:02:21.841Z,53.19
2022-07-26T19:04:48.339Z,53.35
2022-07-26T19:07:14.837Z,52.67
2022-07-26T19:09:41.674Z,52.94
2022-07-26T19:12:08.607Z,52.35
2022-07-26T19:14:35.143Z,53.35
2022-07-26T19:17:01.744Z,52.90
2022-07-26T19:19:28.351Z,52.65
2022-07-26T19:21:55.192Z,52.68
2022-07-26T19:24:21.679Z,53.24
2022-07-26T19:26:48.193Z,53.83
2022-07-26T19:29:15.003Z,53.52
2022-07-26T19:31:46.032Z,52.01
2022-07-26T19:34:15.925Z,52.56
2022-07-26T19:36:42.657Z,54.22
2022-07-26T19:39:09.780Z,55.22
2022-07-26T19:41:37.119Z,55.67
2022-07-26T19:44:03.874Z,55.00
2022-07-26T19:46:30.521Z,55.80
2022-07-26T19:48:57.331Z,55.79
2022-07-26T19:51:24.066Z,56.14
2022-07-26T19:53:50.700Z,55.84
2022-07-26T19:56:17.302Z,56.20
2022-07-26T19:58:46.104Z,56.41
2022-07-26T20:01:12.961Z,56.81
2022-07-26T20:03:39.476Z,56.49
2022-07-26T20:06:06.591Z,57.86
2022-07-26T20:08:33.767Z,57.71
2022-07-26T20:11:00.992Z,56.33
2022-07-26T20:13:28.126Z,57.43
2022-07-26T20:15:54.651Z,57.27
2022-07-26T20:18:25.025Z,57.09
2022-07-26T20:20:56.205Z,56.83
2022-07-26T20:23:23.901Z,57.74
2022-07-26T20:25:50.653Z,57.70
2022-07-26T20:28:17.312Z,58.11
2022-07-26T20:30:43.911Z,58.04
2022-07-26T20:33:10.428Z,57.59
2022-07-26T20:35:36.993Z,57.73
2022-07-26T20:38:03.690Z,56.56
2022-07-26T20:40:30.541Z,56.83
2022-07-26T20:42:58.025Z,56.44
2022-07-26T20:45:25.183Z,56.82
2022-07-26T20:47:52.837Z,56.42
2022-07-26T20:50:19.580Z,56.92
2022-07-26T20:52:47.328Z,57.88
2022-07-26T20:55:15.374Z,57.99
2022-07-26T20:57:41.983Z,58.79
2022-07-26T21:00:11.654Z,56.60
2022-07-26T21:02:38.229Z,56.59
2022-07-26T21:05:06.126Z,57.45
2022-07-26T21:07:58.498Z,57.47
2022-07-26T21:10:20.387Z,57.17
2022-07-26T21:12:49.238Z,57.51
2022-07-26T21:15:16.954Z,57.71
2022-07-26T21:17:43.687Z,57.69
2022-07-26T21:20:10.534Z,58.61
2022-07-26T21:22:38.057Z,58.74
2022-07-26T21:25:06.593Z,57.69
2022-07-26T21:27:33.158Z,57.07
2022-07-26T21:30:01.053Z,57.25
2022-07-26T21:32:31.498Z,57.71
2022-07-26T21:34:58.928Z,57.94
2022-07-26T21:37:25.805Z,59.14
2022-07-26T21:39:52.314Z,58.92
2022-07-26T21:42:18.906Z,59.27
2022-07-26T21:44:45.403Z,60.83
2022-07-26T21:47:12.253Z,60.17
2022-07-26T21:49:38.754Z,59.87
2022-07-26T21:52:06.223Z,58.42
2022-07-26T21:54:32.774Z,58.80
2022-07-26T21:56:59.320Z,58.87
2022-07-26T21:59:25.855Z,59.19
2022-07-26T22:01:52.365Z,58.57
2022-07-26T22:04:18.894Z,59.83
2022-07-26T22:06:45.468Z,59.07
2022-07-26T22:09:12.377Z,59.30
2022-07-26T22:11:39.079Z,59.56
2022-07-26T22:14:08.301Z,61.91
2022-07-26T22:16:35.297Z,60.91
2022-07-26T22:19:02.417Z,60.33
2022-07-26T22:21:29.157Z,62.15
2022-07-26T22:23:55.688Z,61.23
2022-07-26T22:26:26.179Z,61.01
2022-07-26T22:28:52.931Z,61.19
2022-07-26T22:31:19.551Z,59.76
2022-07-26T22:33:46.098Z,60.74
2022-07-26T22:36:12.606Z,60.41
2022-07-26T22:38:39.102Z,61.48
2022-07-26T22:41:05.630Z,61.44
2022-07-26T22:43:32.120Z,61.73
2022-07-26T22:45:58.706Z,60.29
2022-07-26T22:48:25.293Z,60.66
2022-07-26T22:50:51.872Z,60.86
2022-07-26T22:53:18.390Z,62.43
2022-07-26T22:55:44.907Z,62.41
2022-07-26T22:58:11.423Z,60.41
2022-07-26T23:00:38.108Z,61.87
2022-07-26T23:03:04.998Z,62.52
2022-07-26T23:05:46.186Z,62.98
2022-07-26T23:08:45.091Z,61.81
2022-07-26T23:11:01.052Z,61.49
2022-07-26T23:13:27.522Z,59.75
2022-07-26T23:15:59.678Z,61.58
2022-07-26T23:18:27.291Z,60.92
2022-07-26T23:20:53.817Z,59.82
2022-07-26T23:23:20.281Z,59.24
2022-07-26T23:25:47.035Z,59.70
2022-07-26T23:28:35.598Z,61.54
2022-07-26T23:31:00.730Z,64.24
2022-07-26T23:33:53.158Z,65.00
2022-07-26T23:36:13.866Z,67.33
2022-07-26T23:38:40.346Z,67.18
2022-07-26T23:41:06.904Z,66.15
2022-07-26T23:43:33.388Z,66.57
2022-07-26T23:45:59.936Z,66.15
2022-07-26T23:48:26.454Z,66.39
2022-07-26T23:50:52.946Z,66.58
2022-07-26T23:53:19.414Z,65.66
2022-07-26T23:55:53.319Z,64.97
2022-07-26T23:58:19.834Z,64.34
